createdAt,value
2023-05-23T00:01:07.238Z,41.93
2023-05-23T00:03:55.842Z,42.07
2023-05-23T00:06:44.889Z,41.93
2023-05-23T00:09:30.596Z,41.98
2023-05-23T00:12:15.914Z,42.17
2023-05-23T00:15:01.342Z,41.95
2023-05-23T00:17:47.604Z,42.13
2023-05-23T00:20:35.140Z,42.29
2023-05-23T00:27:22.144Z,42.60
2023-05-23T00:31:00.171Z,42.81
2023-05-23T00:33:48.939Z,43.04
2023-05-23T00:36:37.785Z,43.13
2023-05-23T00:39:23.463Z,43.27
2023-05-23T00:42:23.559Z,43.29
2023-05-23T00:45:49.447Z,43.22
2023-05-23T00:48:36.366Z,43.44
2023-05-23T00:55:16.446Z,43.82
2023-05-23T00:58:02.460Z,43.81
2023-05-23T01:00:50.736Z,43.82
2023-05-23T01:03:36.751Z,44.25
2023-05-23T01:06:22.107Z,44.25
2023-05-23T01:09:09.583Z,44.28
2023-05-23T01:12:07.290Z,44.44
2023-05-23T01:15:06.496Z,44.62
2023-05-23T01:17:59.294Z,44.44
2023-05-23T01:20:50.650Z,44.45
2023-05-23T01:24:00.173Z,44.33
2023-05-23T01:27:01.952Z,44.52
2023-05-23T01:29:53.174Z,44.38
2023-05-23T01:32:40.127Z,44.62
2023-05-23T01:35:29.357Z,44.51
2023-05-23T01:38:14.512Z,44.51
2023-05-23T01:40:59.929Z,44.43
2023-05-23T01:43:45.081Z,44.74
2023-05-23T01:46:31.745Z,44.72
2023-05-23T01:49:18.460Z,44.77
2023-05-23T01:52:05.620Z,44.62
2023-05-23T01:54:52.941Z,44.72
2023-05-23T01:57:39.214Z,44.88
2023-05-23T02:00:25.023Z,45.15
2023-05-23T02:03:11.812Z,44.91
2023-05-23T02:05:57.577Z,44.93
2023-05-23T02:08:43.191Z,45.11
2023-05-23T02:11:28.535Z,45.10
2023-05-23T02:14:13.754Z,45.14
2023-05-23T02:17:00.459Z,44.99
2023-05-23T02:19:45.982Z,45.07
2023-05-23T02:22:31.524Z,45.20
2023-05-23T02:25:16.733Z,45.22
2023-05-23T02:28:02.298Z,45.28
2023-05-23T02:30:47.723Z,45.35
2023-05-23T02:33:33.139Z,45.32
2023-05-23T02:36:18.505Z,45.42
2023-05-23T02:39:04.005Z,45.59
2023-05-23T02:41:49.453Z,45.63
2023-05-23T02:44:35.116Z,45.75
2023-05-23T02:47:20.755Z,45.58
2023-05-23T02:50:07.780Z,45.64
2023-05-23T02:52:53.851Z,45.55
2023-05-23T02:55:40.371Z,45.79
2023-05-23T02:58:25.850Z,45.81
2023-05-23T03:01:11.977Z,45.59
2023-05-23T03:03:57.657Z,45.63
2023-05-23T03:06:44.606Z,45.56
2023-05-23T03:09:32.173Z,45.50
2023-05-23T03:12:17.736Z,45.51
2023-05-23T03:15:03.295Z,45.81
2023-05-23T03:17:49.390Z,45.87
2023-05-23T03:20:35.692Z,45.63
2023-05-23T03:23:21.024Z,45.88
2023-05-23T03:26:06.816Z,46.38
2023-05-23T03:28:52.190Z,46.63
2023-05-23T03:31:38.328Z,46.73
2023-05-23T03:34:23.914Z,46.62
2023-05-23T03:37:09.672Z,47.18
2023-05-23T03:39:54.872Z,47.04
2023-05-23T03:42:40.269Z,47.26
2023-05-23T03:45:27.928Z,47.58
2023-05-23T03:48:13.263Z,47.46
2023-05-23T03:50:59.889Z,47.52
2023-05-23T03:53:45.286Z,47.56
2023-05-23T03:56:30.566Z,47.67
2023-05-23T03:59:15.826Z,47.80
2023-05-23T04:02:01.348Z,47.80
2023-05-23T04:04:47.010Z,47.99
2023-05-23T04:07:34.829Z,48.10
2023-05-23T04:10:20.040Z,47.96
2023-05-23T04:13:06.614Z,47.75
2023-05-23T04:15:52.703Z,47.69
2023-05-23T04:18:39.190Z,47.78
2023-05-23T04:21:25.548Z,47.61
2023-05-23T04:24:23.644Z,47.45
2023-05-23T04:27:09.042Z,47.95
2023-05-23T04:29:56.496Z,50.10
2023-05-23T04:32:41.927Z,49.65
2023-05-23T04:35:28.403Z,49.69
2023-05-23T04:38:14.240Z,49.94
2023-05-23T04:40:59.887Z,50.06
2023-05-23T04:44:18.018Z,50.16
2023-05-23T04:47:28.074Z,49.88
2023-05-23T04:50:24.652Z,50.02
2023-05-23T04:53:09.996Z,49.71
2023-05-23T04:55:56.509Z,49.50
2023-05-23T04:58:42.423Z,49.30
2023-05-23T05:01:29.777Z,49.37
2023-05-23T05:04:16.110Z,49.32
2023-05-23T05:07:04.174Z,49.12
2023-05-23T05:09:49.510Z,49.39
2023-05-23T05:12:36.039Z,49.86
2023-05-23T05:15:21.366Z,49.20
2023-05-23T05:18:12.196Z,49.40
2023-05-23T05:20:58.624Z,49.36
2023-05-23T05:23:44.118Z,49.15
2023-05-23T05:26:29.723Z,49.16
2023-05-23T05:29:16.309Z,49.04
2023-05-23T05:32:03.375Z,49.16
2023-05-23T05:34:49.435Z,48.85
2023-05-23T05:37:36.351Z,48.81
2023-05-23T05:40:22.233Z,48.92
2023-05-23T05:43:07.408Z,49.18
2023-05-23T05:45:53.271Z,49.33
2023-05-23T05:48:38.629Z,49.86
2023-05-23T05:51:26.762Z,50.60
2023-05-23T05:54:13.136Z,50.98
2023-05-23T05:56:58.519Z,50.69
2023-05-23T05:59:44.277Z,50.45
2023-05-23T06:02:31.486Z,50.17
2023-05-23T06:05:16.855Z,49.79
2023-05-23T06:08:04.042Z,50.58
2023-05-23T06:10:49.438Z,51.95
2023-05-23T06:13:35.241Z,52.47
2023-05-23T06:16:20.969Z,52.80
2023-05-23T06:19:08.423Z,52.16
2023-05-23T06:21:55.634Z,52.85
2023-05-23T06:24:41.756Z,52.54
2023-05-23T06:27:27.111Z,52.52
2023-05-23T06:30:13.404Z,52.24
2023-05-23T06:32:58.713Z,51.99
2023-05-23T06:35:44.270Z,51.31
2023-05-23T06:38:33.489Z,50.34
2023-05-23T06:41:18.798Z,49.91
2023-05-23T06:44:03.934Z,49.87
2023-05-23T06:46:49.959Z,49.11
2023-05-23T06:49:35.309Z,48.32
2023-05-23T06:52:20.722Z,47.38
2023-05-23T06:55:06.877Z,45.84
2023-05-23T06:57:52.305Z,46.12
2023-05-23T07:00:39.727Z,45.97
2023-05-23T07:03:41.767Z,45.25
2023-05-23T07:06:27.590Z,45.59
2023-05-23T07:09:13.088Z,45.03
2023-05-23T07:11:59.439Z,45.11
2023-05-23T07:14:44.874Z,45.42
2023-05-23T07:17:30.280Z,46.20
2023-05-23T07:20:16.902Z,46.45
2023-05-23T07:23:03.503Z,46.36
2023-05-23T07:26:01.238Z,45.86
2023-05-23T07:28:55.090Z,46.17
2023-05-23T07:31:41.262Z,45.98
2023-05-23T07:34:28.282Z,45.99
2023-05-23T07:37:16.361Z,45.66
2023-05-23T07:40:07.727Z,44.32
2023-05-23T07:42:54.157Z,43.79
2023-05-23T07:45:39.661Z,43.80
2023-05-23T07:48:27.073Z,43.53
2023-05-23T07:51:12.597Z,43.80
2023-05-23T07:53:58.281Z,44.05
2023-05-23T07:56:43.945Z,44.78
2023-05-23T07:59:30.246Z,45.27
2023-05-23T08:02:16.479Z,46.33
2023-05-23T08:05:02.746Z,46.50
2023-05-23T08:07:48.448Z,46.73
2023-05-23T08:10:33.749Z,47.16
2023-05-23T08:13:28.418Z,46.81
2023-05-23T08:16:35.298Z,47.68
2023-05-23T08:19:21.194Z,47.04
2023-05-23T08:22:07.692Z,45.81
2023-05-23T08:24:52.685Z,45.87
2023-05-23T08:27:38.683Z,45.93
2023-05-23T08:30:36.737Z,44.86
2023-05-23T08:33:22.647Z,44.32
2023-05-23T08:36:11.563Z,44.06
2023-05-23T08:38:57.137Z,43.77
2023-05-23T08:41:52.699Z,44.08
2023-05-23T08:44:38.024Z,44.29
2023-05-23T08:47:23.898Z,44.36
2023-05-23T08:50:16.083Z,44.90
2023-05-23T08:53:03.227Z,45.17
2023-05-23T08:55:51.524Z,46.55
2023-05-23T08:58:41.851Z,47.36
2023-05-23T09:01:29.387Z,47.70
2023-05-23T09:04:17.635Z,46.83
2023-05-23T09:07:16.892Z,47.95
2023-05-23T09:10:07.074Z,48.49
2023-05-23T09:12:52.865Z,48.82
2023-05-23T09:15:38.638Z,49.02
2023-05-23T09:18:33.185Z,50.25
2023-05-23T09:21:18.899Z,51.37
2023-05-23T09:24:34.193Z,52.17
2023-05-23T09:27:19.885Z,52.92
2023-05-23T09:30:12.721Z,53.03
2023-05-23T09:33:03.916Z,53.10
2023-05-23T09:35:51.430Z,52.80
2023-05-23T09:38:46.209Z,52.08
2023-05-23T09:41:35.501Z,51.57
2023-05-23T09:44:23.066Z,50.70
2023-05-23T09:47:08.327Z,50.88
2023-05-23T09:49:53.564Z,51.62
2023-05-23T09:52:39.921Z,51.63
2023-05-23T09:55:25.332Z,50.56
2023-05-23T09:58:11.285Z,51.07
2023-05-23T10:00:58.075Z,51.58
2023-05-23T10:03:55.947Z,51.73
2023-05-23T10:06:48.882Z,51.96
2023-05-23T10:09:38.018Z,52.12
2023-05-23T10:12:32.760Z,53.40
2023-05-23T10:15:18.988Z,54.19
2023-05-23T10:18:14.958Z,54.37
2023-05-23T10:21:09.494Z,55.23
2023-05-23T10:23:55.934Z,55.63
2023-05-23T10:26:41.376Z,56.36
2023-05-23T10:29:27.174Z,56.58
2023-05-23T10:32:15.003Z,56.33
2023-05-23T10:35:23.904Z,56.46
2023-05-23T10:38:24.431Z,57.27
2023-05-23T10:41:16.532Z,58.28
2023-05-23T10:44:13.003Z,59.07
2023-05-23T10:47:03.835Z,59.87
2023-05-23T10:49:54.413Z,59.92
2023-05-23T10:52:41.668Z,59.19
2023-05-23T10:55:31.124Z,60.51
2023-05-23T10:58:20.468Z,61.18
2023-05-23T11:01:08.756Z,62.53
2023-05-23T11:03:56.015Z,63.19
2023-05-23T11:06:44.447Z,63.66
2023-05-23T11:09:30.022Z,62.68
2023-05-23T11:12:15.637Z,61.44
2023-05-23T11:15:01.222Z,61.10
2023-05-23T11:17:54.976Z,61.14
2023-05-23T11:20:41.507Z,61.33
2023-05-23T11:23:41.797Z,62.22
2023-05-23T11:26:32.016Z,62.85
2023-05-23T11:29:17.651Z,65.56
2023-05-23T11:32:15.982Z,66.55
2023-05-23T11:35:03.788Z,67.13
2023-05-23T11:37:49.451Z,66.77
2023-05-23T11:40:39.902Z,67.44
2023-05-23T11:43:26.022Z,67.52
2023-05-23T11:46:11.597Z,67.42
2023-05-23T11:48:57.150Z,66.68
2023-05-23T11:51:42.390Z,67.04
2023-05-23T11:54:28.287Z,66.49
2023-05-23T11:57:14.365Z,66.09
2023-05-23T11:59:59.739Z,65.92
2023-05-23T12:02:46.243Z,64.88
2023-05-23T12:05:31.689Z,64.74
2023-05-23T12:08:16.969Z,65.30
2023-05-23T12:11:02.979Z,65.59
2023-05-23T12:13:48.975Z,65.17
2023-05-23T12:16:35.123Z,64.54
2023-05-23T12:19:20.922Z,64.47
2023-05-23T12:22:07.896Z,65.06
2023-05-23T12:24:55.605Z,65.40
2023-05-23T12:27:44.088Z,65.29
2023-05-23T12:30:29.386Z,65.56
2023-05-23T12:33:15.027Z,65.32
2023-05-23T12:36:00.658Z,65.73
2023-05-23T12:38:45.856Z,65.59
2023-05-23T12:41:32.721Z,65.37
2023-05-23T12:44:18.313Z,65.36
2023-05-23T12:47:04.339Z,65.51
2023-05-23T12:49:49.940Z,65.38
2023-05-23T12:52:36.696Z,65.28
2023-05-23T12:55:22.169Z,64.02
2023-05-23T12:58:07.489Z,64.88
2023-05-23T13:00:52.952Z,65.70
2023-05-23T13:03:38.593Z,65.66
2023-05-23T13:06:23.894Z,65.62
2023-05-23T13:09:09.286Z,66.32
2023-05-23T13:11:55.049Z,66.73
2023-05-23T13:14:40.432Z,68.27
2023-05-23T13:17:25.836Z,69.92
2023-05-23T13:20:11.458Z,70.63
2023-05-23T13:23:00.874Z,70.97
2023-05-23T13:25:46.956Z,70.59
2023-05-23T13:28:33.410Z,70.95
2023-05-23T13:31:18.988Z,71.60
2023-05-23T13:34:04.259Z,72.52
2023-05-23T13:36:49.356Z,73.82
2023-05-23T13:39:34.892Z,74.83
2023-05-23T13:42:20.403Z,76.10
2023-05-23T13:45:06.530Z,77.18
2023-05-23T13:47:52.359Z,77.32
2023-05-23T13:50:37.822Z,77.43
2023-05-23T13:53:23.362Z,77.03
2023-05-23T13:56:09.450Z,76.58
2023-05-23T13:58:54.864Z,76.39
2023-05-23T14:01:40.850Z,75.90
2023-05-23T14:04:26.239Z,75.26
2023-05-23T14:07:11.388Z,75.05
2023-05-23T14:09:57.525Z,74.88
2023-05-23T14:12:43.083Z,74.88
2023-05-23T14:15:28.551Z,74.93
2023-05-23T14:18:13.828Z,75.35
2023-05-23T14:20:59.030Z,76.14
2023-05-23T14:23:44.396Z,77.32
2023-05-23T14:26:30.187Z,77.70
2023-05-23T14:29:16.063Z,77.51
2023-05-23T14:32:02.762Z,77.11
2023-05-23T14:34:48.194Z,77.64
2023-05-23T14:37:33.600Z,77.88
2023-05-23T14:40:19.111Z,77.98
2023-05-23T14:43:05.068Z,78.07
2023-05-23T14:45:50.332Z,78.07
2023-05-23T14:48:35.681Z,79.37
2023-05-23T14:51:34.726Z,80.32
2023-05-23T14:54:26.939Z,80.78
2023-05-23T14:57:12.258Z,80.91
2023-05-23T14:59:57.402Z,81.69
2023-05-23T15:02:42.682Z,83.27
2023-05-23T15:05:27.895Z,82.83
2023-05-23T15:08:13.602Z,80.67
2023-05-23T15:10:59.422Z,79.89
2023-05-23T15:13:45.075Z,79.34
2023-05-23T15:16:33.413Z,79.42
2023-05-23T15:19:19.268Z,78.59
2023-05-23T15:22:05.201Z,78.23
2023-05-23T15:24:50.464Z,77.22
2023-05-23T15:27:36.153Z,77.41
2023-05-23T15:30:24.317Z,77.23
2023-05-23T15:33:09.732Z,76.85
2023-05-23T15:35:55.215Z,76.68
2023-05-23T15:38:40.462Z,75.61
2023-05-23T15:41:26.557Z,76.11
2023-05-23T15:44:14.709Z,75.86
2023-05-23T15:47:00.235Z,75.20
2023-05-23T15:49:45.585Z,75.91
2023-05-23T15:52:30.664Z,75.80
2023-05-23T15:55:15.919Z,76.67
2023-05-23T15:58:01.046Z,78.12
2023-05-23T16:00:46.443Z,80.73
2023-05-23T16:03:32.011Z,83.17
2023-05-23T16:06:17.337Z,87.03
2023-05-23T16:09:03.149Z,93.80
2023-05-23T16:11:48.765Z,100.00
2023-05-23T16:14:33.920Z,100.00
2023-05-23T16:17:19.416Z,100.00
2023-05-23T16:20:05.195Z,100.00
2023-05-23T16:22:51.152Z,100.00
2023-05-23T16:25:36.211Z,100.00
2023-05-23T16:28:21.779Z,100.00
2023-05-23T16:31:07.277Z,100.00
2023-05-23T16:33:52.686Z,100.00
2023-05-23T16:36:38.037Z,100.00
2023-05-23T16:39:23.299Z,100.00
2023-05-23T16:42:08.700Z,100.00
2023-05-23T16:44:54.002Z,100.00
2023-05-23T16:47:39.138Z,100.00
2023-05-23T16:50:24.500Z,100.00
2023-05-23T16:53:09.665Z,100.00
2023-05-23T16:55:54.909Z,100.00
2023-05-23T16:58:41.687Z,100.00
2023-05-23T17:01:29.539Z,100.00
2023-05-23T17:04:15.058Z,100.00
2023-05-23T17:07:00.428Z,98.80
2023-05-23T17:09:46.017Z,99.99
2023-05-23T17:12:31.760Z,100.00
2023-05-23T17:15:16.849Z,100.00
2023-05-23T17:18:02.487Z,100.00
2023-05-23T17:20:48.085Z,98.13
2023-05-23T17:23:33.573Z,96.55
2023-05-23T17:26:19.805Z,93.30
2023-05-23T17:29:05.345Z,94.10
2023-05-23T17:31:50.935Z,91.86
2023-05-23T17:34:36.424Z,90.97
2023-05-23T17:37:21.796Z,91.52
2023-05-23T17:40:07.610Z,89.59
2023-05-23T17:42:53.002Z,88.53
2023-05-23T17:45:38.997Z,88.69
2023-05-23T17:48:38.289Z,88.60
2023-05-23T17:51:29.827Z,88.14
2023-05-23T17:54:15.147Z,86.30
2023-05-23T17:57:00.415Z,85.66
2023-05-23T17:59:46.026Z,85.88
2023-05-23T18:02:31.436Z,85.74
2023-05-23T18:05:19.685Z,86.69
2023-05-23T18:08:05.410Z,87.82
2023-05-23T18:10:51.187Z,87.97
2023-05-23T18:13:36.378Z,88.66
2023-05-23T18:16:22.182Z,89.10
2023-05-23T18:19:07.625Z,90.47
2023-05-23T18:21:53.636Z,91.42
2023-05-23T18:24:40.426Z,92.38
2023-05-23T18:27:25.994Z,93.33
2023-05-23T18:30:11.980Z,92.62
2023-05-23T18:32:58.806Z,91.94
2023-05-23T18:35:44.464Z,92.68
2023-05-23T18:38:30.885Z,94.19
2023-05-23T18:41:16.448Z,95.19
2023-05-23T18:44:02.077Z,93.67
2023-05-23T18:46:47.254Z,92.43
2023-05-23T18:49:32.665Z,92.71
2023-05-23T18:52:18.037Z,93.63
2023-05-23T18:55:03.738Z,91.84
2023-05-23T18:57:48.972Z,92.57
2023-05-23T19:00:34.355Z,90.14
2023-05-23T19:03:20.077Z,88.24
2023-05-23T19:06:07.029Z,87.77
2023-05-23T19:08:52.384Z,88.38
2023-05-23T19:11:37.928Z,88.70
2023-05-23T19:14:23.599Z,87.86
2023-05-23T19:17:09.409Z,88.53
2023-05-23T19:19:55.099Z,88.57
2023-05-23T19:22:51.037Z,88.32
2023-05-23T19:25:37.803Z,87.98
2023-05-23T19:28:22.897Z,86.88
2023-05-23T19:31:08.099Z,86.72
2023-05-23T19:33:53.251Z,86.35
2023-05-23T19:36:38.487Z,87.16
2023-05-23T19:39:23.707Z,85.68
2023-05-23T19:42:08.971Z,86.62
2023-05-23T19:44:54.650Z,85.44
2023-05-23T19:47:40.755Z,85.51
2023-05-23T19:50:26.014Z,84.89
2023-05-23T19:53:11.473Z,83.61
2023-05-23T19:55:57.553Z,82.94
2023-05-23T19:58:43.211Z,83.30
2023-05-23T20:01:30.662Z,82.51
2023-05-23T20:04:16.444Z,81.22
2023-05-23T20:07:01.668Z,82.35
2023-05-23T20:09:46.869Z,78.80
2023-05-23T20:12:32.221Z,77.78
2023-05-23T20:15:24.591Z,76.62
2023-05-23T20:18:17.004Z,72.81
2023-05-23T20:21:05.047Z,73.93
2023-05-23T20:23:51.060Z,73.97
2023-05-23T20:26:36.231Z,71.30
2023-05-23T20:29:21.509Z,71.09
2023-05-23T20:32:06.840Z,71.28
2023-05-23T20:34:52.722Z,70.77
2023-05-23T20:37:39.100Z,70.69
2023-05-23T20:40:25.660Z,69.13
2023-05-23T20:43:11.197Z,69.15
2023-05-23T20:45:57.243Z,69.92
2023-05-23T20:48:42.586Z,70.73
2023-05-23T20:51:27.811Z,68.55
2023-05-23T20:54:13.043Z,68.29
2023-05-23T20:56:58.856Z,68.56
2023-05-23T20:59:44.269Z,68.44
2023-05-23T21:02:29.491Z,67.98
2023-05-23T21:05:14.682Z,68.08
2023-05-23T21:07:59.765Z,68.21
2023-05-23T21:10:49.108Z,67.56
2023-05-23T21:13:37.708Z,66.87
2023-05-23T21:16:25.037Z,67.55
2023-05-23T21:19:10.717Z,67.20
2023-05-23T21:21:56.190Z,66.75
2023-05-23T21:24:41.821Z,66.43
2023-05-23T21:27:29.035Z,66.43
2023-05-23T21:30:15.288Z,65.73
2023-05-23T21:33:00.556Z,66.03
2023-05-23T21:35:45.947Z,66.89
2023-05-23T21:38:31.254Z,66.74
2023-05-23T21:41:16.602Z,66.56
2023-05-23T21:44:01.760Z,66.71
2023-05-23T21:46:47.427Z,65.89
2023-05-23T21:49:35.091Z,65.86
2023-05-23T21:52:20.850Z,65.74
2023-05-23T21:55:06.421Z,66.19
2023-05-23T21:57:51.376Z,66.51
2023-05-23T22:00:36.971Z,66.27
2023-05-23T22:03:22.193Z,66.74
2023-05-23T22:06:07.601Z,66.44
2023-05-23T22:08:53.230Z,66.03
2023-05-23T22:11:38.877Z,66.00
2023-05-23T22:14:24.402Z,65.90
2023-05-23T22:17:09.945Z,65.93
2023-05-23T22:19:58.000Z,66.18
2023-05-23T22:22:43.197Z,64.98
2023-05-23T22:25:32.691Z,65.89
2023-05-23T22:28:18.033Z,64.95
2023-05-23T22:31:03.410Z,64.96
2023-05-23T22:33:48.480Z,65.10
2023-05-23T22:36:34.080Z,64.73
2023-05-23T22:39:19.361Z,65.78
2023-05-23T22:42:04.939Z,65.85
2023-05-23T22:44:50.492Z,65.76
2023-05-23T22:47:35.933Z,65.73
2023-05-23T22:50:22.471Z,64.85
2023-05-23T22:53:11.552Z,64.68
2023-05-23T22:55:57.395Z,64.96
2023-05-23T22:58:42.874Z,65.30
2023-05-23T23:01:28.411Z,65.69
2023-05-23T23:04:13.629Z,65.33
2023-05-23T23:07:02.625Z,65.89
2023-05-23T23:09:49.039Z,65.85
2023-05-23T23:12:36.915Z,65.96
2023-05-23T23:15:24.577Z,65.82
2023-05-23T23:18:10.239Z,65.90
2023-05-23T23:20:55.371Z,66.23
2023-05-23T23:23:42.394Z,66.33
2023-05-23T23:26:27.685Z,65.86
2023-05-23T23:29:13.272Z,66.55
2023-05-23T23:31:59.715Z,67.24
2023-05-23T23:34:44.871Z,66.68
2023-05-23T23:37:30.278Z,66.86
2023-05-23T23:40:15.516Z,66.45
2023-05-23T23:43:00.634Z,66.36
2023-05-23T23:45:45.672Z,66.37
2023-05-23T23:48:30.977Z,67.27
2023-05-23T23:51:16.397Z,66.29
2023-05-23T23:54:01.608Z,66.76
2023-05-23T23:56:46.901Z,66.58
2023-05-23T23:59:31.973Z,66.82
